createdAt,value
2019-04-07T00:01:05.930Z,50.19
2019-04-07T00:03:37.405Z,50.37
2019-04-07T00:06:10.956Z,50.29
2019-04-07T00:08:43.671Z,50.41
2019-04-07T00:11:15.082Z,50.73
2019-04-07T00:13:47.215Z,50.37
2019-04-07T00:16:22.478Z,50.07
2019-04-07T00:18:53.838Z,50.21
2019-04-07T00:21:25.817Z,50.26
2019-04-07T00:23:58.212Z,51.44
2019-04-07T00:26:28.865Z,51.09
2019-04-07T00:28:59.973Z,50.95
2019-04-07T00:31:31.178Z,51.01
2019-04-07T00:34:02.811Z,51.07
2019-04-07T00:36:36.263Z,51.07
2019-04-07T00:39:09.606Z,51.13
2019-04-07T00:41:40.355Z,51.44
2019-04-07T00:44:11.433Z,51.68
2019-04-07T00:46:44.450Z,51.78
2019-04-07T00:49:15.778Z,51.68
2019-04-07T00:51:47.590Z,53.32
2019-04-07T00:54:18.669Z,53.66
2019-04-07T00:56:49.087Z,52.43
2019-04-07T00:59:21.707Z,52.63
2019-04-07T01:01:55.325Z,52.74
2019-04-07T01:04:26.586Z,52.62
2019-04-07T01:07:00.244Z,51.92
2019-04-07T01:09:32.640Z,52.06
2019-04-07T01:12:03.118Z,53.28
2019-04-07T01:14:33.638Z,52.55
2019-04-07T01:17:06.212Z,52.92
2019-04-07T01:19:39.838Z,53.18
2019-04-07T01:22:12.415Z,52.90
2019-04-07T01:24:44.356Z,54.03
2019-04-07T01:27:15.766Z,54.35
2019-04-07T01:29:46.353Z,52.85
2019-04-07T01:32:17.915Z,52.70
2019-04-07T01:34:50.344Z,52.24
2019-04-07T01:37:22.557Z,52.14
2019-04-07T01:39:54.882Z,51.82
2019-04-07T01:42:41.147Z,52.81
2019-04-07T01:45:38.205Z,52.16
2019-04-07T01:48:25.915Z,54.09
2019-04-07T01:51:21.785Z,52.58
2019-04-07T01:54:05.328Z,53.22
2019-04-07T01:57:05.887Z,52.72
2019-04-07T01:59:57.330Z,53.52
2019-04-07T02:02:56.954Z,53.38
2019-04-07T02:05:57.665Z,52.74
2019-04-07T02:08:47.491Z,52.47
2019-04-07T02:11:28.939Z,52.32
2019-04-07T02:14:22.467Z,52.24
2019-04-07T02:17:04.319Z,52.24
2019-04-07T02:20:00.425Z,52.27
2019-04-07T02:22:54.755Z,52.07
2019-04-07T02:25:53.177Z,51.96
2019-04-07T02:28:55.260Z,52.94
2019-04-07T02:31:34.651Z,52.60
2019-04-07T02:34:26.023Z,53.03
2019-04-07T02:37:20.725Z,53.64
2019-04-07T02:40:10.408Z,54.93
2019-04-07T02:42:59.030Z,57.27
2019-04-07T02:45:50.464Z,56.20
2019-04-07T02:48:33.829Z,54.83
2019-04-07T02:51:24.290Z,54.08
2019-04-07T02:54:09.250Z,53.79
2019-04-07T02:57:08.494Z,53.69
2019-04-07T03:00:07.770Z,55.73
2019-04-07T03:03:16.988Z,53.28
2019-04-07T03:06:00.459Z,53.37
2019-04-07T03:09:05.544Z,52.38
2019-04-07T03:12:03.933Z,52.20
2019-04-07T03:14:45.669Z,52.32
2019-04-07T03:17:31.718Z,55.21
2019-04-07T03:20:13.328Z,53.80
2019-04-07T03:23:07.907Z,53.47
2019-04-07T03:26:08.547Z,52.48
2019-04-07T03:28:58.984Z,52.23
2019-04-07T03:31:45.340Z,53.14
2019-04-07T03:34:32.866Z,53.50
2019-04-07T03:37:25.662Z,52.40
2019-04-07T03:40:06.395Z,52.23
2019-04-07T03:43:09.354Z,51.98
2019-04-07T03:46:08.068Z,51.92
2019-04-07T03:48:57.948Z,52.18
2019-04-07T03:51:54.062Z,51.84
2019-04-07T03:54:39.996Z,51.91
2019-04-07T03:57:39.238Z,51.70
2019-04-07T04:00:56.298Z,51.71
2019-04-07T04:03:38.787Z,51.64
2019-04-07T04:06:32.503Z,52.07
2019-04-07T04:09:11.388Z,51.90
2019-04-07T04:11:48.897Z,51.79
2019-04-07T04:14:34.991Z,51.54
2019-04-07T04:17:06.299Z,51.58
2019-04-07T04:19:38.928Z,51.38
2019-04-07T04:22:09.502Z,51.34
2019-04-07T04:24:40.443Z,51.43
2019-04-07T04:27:16.924Z,51.57
2019-04-07T04:29:54.701Z,51.58
2019-04-07T04:32:28.796Z,51.47
2019-04-07T04:34:59.552Z,52.97
2019-04-07T04:37:40.173Z,52.40
2019-04-07T04:40:03.687Z,52.93
2019-04-07T04:42:35.801Z,53.15
2019-04-07T04:45:08.732Z,52.89
2019-04-07T04:47:40.724Z,52.33
2019-04-07T04:50:12.901Z,53.29
2019-04-07T04:52:45.422Z,54.64
2019-04-07T04:55:19.629Z,54.59
2019-04-07T04:57:52.074Z,53.83
2019-04-07T05:00:24.592Z,54.65
2019-04-07T05:02:55.969Z,53.83
2019-04-07T05:05:26.661Z,54.12
2019-04-07T05:08:02.528Z,53.24
2019-04-07T05:10:33.816Z,52.51
2019-04-07T05:13:05.326Z,52.29
2019-04-07T05:15:39.908Z,52.05
2019-04-07T05:18:13.075Z,51.75
2019-04-07T05:20:45.569Z,51.85
2019-04-07T05:23:17.481Z,52.84
2019-04-07T05:25:49.211Z,52.64
2019-04-07T05:28:21.657Z,53.02
2019-04-07T05:30:55.809Z,53.62
2019-04-07T05:33:26.869Z,52.10
2019-04-07T05:35:59.330Z,51.82
2019-04-07T05:38:32.574Z,51.69
2019-04-07T05:41:05.443Z,51.94
2019-04-07T05:43:36.970Z,51.55
2019-04-07T05:46:09.078Z,51.30
2019-04-07T05:48:40.398Z,51.43
2019-04-07T05:51:13.401Z,51.96
2019-04-07T05:53:46.321Z,52.42
2019-04-07T05:56:16.649Z,51.61
2019-04-07T05:58:48.632Z,52.10
2019-04-07T06:01:23.362Z,52.14
2019-04-07T06:03:53.401Z,51.61
2019-04-07T06:06:24.408Z,51.76
2019-04-07T06:08:55.597Z,52.92
2019-04-07T06:11:31.272Z,52.53
2019-04-07T06:14:00.812Z,51.67
2019-04-07T06:16:34.398Z,51.98
2019-04-07T06:19:08.086Z,52.11
2019-04-07T06:21:38.664Z,51.64
2019-04-07T06:24:10.123Z,51.66
2019-04-07T06:26:44.616Z,52.07
2019-04-07T06:29:14.905Z,50.46
2019-04-07T06:31:47.107Z,52.93
2019-04-07T06:34:18.793Z,51.94
2019-04-07T06:36:55.395Z,51.71
2019-04-07T06:39:26.622Z,50.80
2019-04-07T06:41:58.887Z,50.36
2019-04-07T06:44:30.707Z,49.74
2019-04-07T06:47:10.192Z,50.81
2019-04-07T06:50:05.534Z,52.45
2019-04-07T06:53:05.625Z,51.53
2019-04-07T06:55:53.991Z,51.72
2019-04-07T06:58:44.941Z,52.12
2019-04-07T07:01:36.330Z,51.30
2019-04-07T07:04:25.365Z,50.04
2019-04-07T07:07:06.177Z,52.08
2019-04-07T07:10:17.034Z,51.11
2019-04-07T07:12:59.667Z,51.72
2019-04-07T07:15:50.030Z,51.84
2019-04-07T07:18:44.975Z,50.40
2019-04-07T07:21:38.719Z,50.05
2019-04-07T07:24:10.398Z,51.85
2019-04-07T07:26:41.797Z,51.10
2019-04-07T07:29:18.133Z,50.08
2019-04-07T07:31:51.232Z,49.48
2019-04-07T07:34:23.855Z,48.74
2019-04-07T07:36:57.667Z,48.02
2019-04-07T07:39:27.403Z,49.11
2019-04-07T07:41:58.418Z,47.42
2019-04-07T07:44:31.274Z,47.15
2019-04-07T07:47:02.744Z,46.38
2019-04-07T07:49:41.494Z,46.59
2019-04-07T07:52:22.002Z,45.99
2019-04-07T07:54:53.640Z,45.82
2019-04-07T07:57:25.005Z,45.60
2019-04-07T07:59:57.262Z,46.01
2019-04-07T08:02:30.805Z,45.82
2019-04-07T08:05:01.839Z,45.81
2019-04-07T08:07:35.843Z,44.77
2019-04-07T08:10:07.456Z,44.43
2019-04-07T08:12:40.128Z,44.33
2019-04-07T08:15:13.756Z,44.34
2019-04-07T08:17:46.286Z,45.07
2019-04-07T08:20:19.881Z,44.20
2019-04-07T08:22:50.425Z,43.70
2019-04-07T08:25:25.062Z,44.99
2019-04-07T08:28:03.736Z,43.87
2019-04-07T08:30:34.685Z,43.31
2019-04-07T08:33:07.400Z,42.91
2019-04-07T08:35:40.682Z,44.02
2019-04-07T08:38:13.979Z,43.59
2019-04-07T08:40:45.623Z,43.22
2019-04-07T08:43:19.612Z,42.26
2019-04-07T08:45:48.167Z,42.84
2019-04-07T08:48:21.424Z,41.46
2019-04-07T08:51:00.479Z,43.05
2019-04-07T08:53:34.164Z,43.60
2019-04-07T08:56:11.935Z,41.33
2019-04-07T08:58:45.876Z,40.36
2019-04-07T09:01:20.372Z,40.67
2019-04-07T09:03:52.741Z,40.84
2019-04-07T09:06:27.276Z,40.11
2019-04-07T09:08:57.421Z,40.35
2019-04-07T09:11:30.358Z,40.45
2019-04-07T09:14:02.124Z,39.87
2019-04-07T09:16:42.316Z,40.84
2019-04-07T09:19:26.438Z,38.96
2019-04-07T09:22:20.100Z,39.74
2019-04-07T09:25:17.128Z,39.44
2019-04-07T09:28:13.356Z,39.04
2019-04-07T09:31:08.440Z,40.64
2019-04-07T09:34:04.587Z,38.57
2019-04-07T09:36:54.405Z,37.40
2019-04-07T09:39:54.007Z,37.40
2019-04-07T09:42:29.056Z,36.22
2019-04-07T09:45:12.790Z,36.50
2019-04-07T09:47:56.463Z,35.54
2019-04-07T09:50:54.456Z,35.54
2019-04-07T09:53:41.791Z,35.32
2019-04-07T09:56:32.856Z,35.91
2019-04-07T09:59:27.295Z,35.11
2019-04-07T10:02:25.209Z,34.06
2019-04-07T10:05:24.953Z,38.04
2019-04-07T10:08:17.710Z,36.48
2019-04-07T10:11:12.970Z,35.12
2019-04-07T10:14:01.208Z,37.60
2019-04-07T10:16:53.256Z,35.18
2019-04-07T10:19:40.041Z,34.05
2019-04-07T10:22:44.755Z,33.41
2019-04-07T10:25:34.451Z,34.70
2019-04-07T10:28:27.705Z,34.13
2019-04-07T10:31:19.773Z,32.71
2019-04-07T10:34:03.067Z,31.58
2019-04-07T10:36:48.785Z,30.13
2019-04-07T10:39:44.635Z,29.88
2019-04-07T10:42:27.190Z,29.13
2019-04-07T10:45:22.900Z,28.52
2019-04-07T10:48:19.241Z,28.73
2019-04-07T10:51:12.109Z,26.59
2019-04-07T10:53:52.755Z,26.37
2019-04-07T10:56:41.332Z,26.82
2019-04-07T10:59:49.318Z,25.64
2019-04-07T11:02:35.174Z,25.91
2019-04-07T11:05:22.904Z,26.69
2019-04-07T11:08:12.700Z,26.24
2019-04-07T11:11:10.614Z,25.50
2019-04-07T11:14:20.117Z,25.16
2019-04-07T11:17:08.167Z,24.29
2019-04-07T11:19:53.152Z,24.18
2019-04-07T11:22:44.108Z,23.44
2019-04-07T11:25:29.484Z,23.23
2019-04-07T11:28:30.556Z,22.60
2019-04-07T11:31:23.382Z,22.48
2019-04-07T11:34:09.246Z,22.63
2019-04-07T11:36:51.846Z,21.33
2019-04-07T11:39:53.466Z,22.23
2019-04-07T11:42:48.047Z,22.00
2019-04-07T11:45:52.296Z,22.59
2019-04-07T11:48:35.214Z,21.93
2019-04-07T11:51:15.208Z,22.07
2019-04-07T11:54:11.921Z,21.16
2019-04-07T11:56:53.407Z,21.04
2019-04-07T11:59:46.173Z,21.18
2019-04-07T12:02:44.270Z,21.28
2019-04-07T12:05:53.867Z,22.98
2019-04-07T12:08:41.907Z,21.05
2019-04-07T12:11:33.081Z,21.05
2019-04-07T12:14:22.944Z,20.98
2019-04-07T12:17:13.490Z,21.50
2019-04-07T12:19:56.894Z,20.97
2019-04-07T12:22:50.198Z,19.93
2019-04-07T12:25:40.082Z,19.00
2019-04-07T12:28:42.239Z,19.33
2019-04-07T12:31:20.097Z,19.88
2019-04-07T12:34:12.065Z,19.67
2019-04-07T12:37:04.629Z,20.95
2019-04-07T12:39:52.133Z,20.68
2019-04-07T12:42:41.682Z,20.72
2019-04-07T12:45:50.231Z,19.46
2019-04-07T12:48:36.139Z,20.03
2019-04-07T12:51:37.632Z,21.00
2019-04-07T12:54:16.813Z,21.24
2019-04-07T12:57:08.504Z,20.99
2019-04-07T13:00:05.933Z,20.70
2019-04-07T13:02:55.226Z,21.56
2019-04-07T13:05:47.028Z,22.06
2019-04-07T13:08:44.877Z,21.03
2019-04-07T13:11:42.817Z,21.00
2019-04-07T13:14:29.120Z,19.11
2019-04-07T13:17:24.983Z,19.65
2019-04-07T13:20:07.071Z,19.39
2019-04-07T13:22:50.867Z,18.63
2019-04-07T13:25:41.681Z,17.85
2019-04-07T13:28:21.735Z,17.78
2019-04-07T13:31:30.418Z,17.84
2019-04-07T13:34:20.344Z,16.83
2019-04-07T13:37:14.566Z,17.08
2019-04-07T13:40:01.519Z,16.21
2019-04-07T13:43:04.373Z,15.60
2019-04-07T13:45:53.930Z,17.65
2019-04-07T13:48:57.801Z,15.46
2019-04-07T13:51:44.649Z,14.42
2019-04-07T13:54:44.827Z,14.31
2019-04-07T13:57:33.841Z,12.23
2019-04-07T14:00:26.389Z,11.12
2019-04-07T14:03:16.691Z,12.86
2019-04-07T14:06:05.493Z,12.51
2019-04-07T14:09:04.181Z,12.66
2019-04-07T14:12:12.721Z,12.81
2019-04-07T14:14:52.645Z,13.29
2019-04-07T14:17:44.760Z,14.04
2019-04-07T14:20:49.638Z,14.23
2019-04-07T14:23:42.321Z,15.16
2019-04-07T14:26:34.683Z,14.18
2019-04-07T14:29:28.310Z,13.57
2019-04-07T14:32:18.442Z,15.16
2019-04-07T14:35:08.361Z,15.52
2019-04-07T14:37:54.721Z,16.48
2019-04-07T14:40:51.112Z,16.78
2019-04-07T14:43:47.478Z,17.75
2019-04-07T14:46:37.799Z,20.02
2019-04-07T14:49:28.655Z,20.24
2019-04-07T14:52:27.033Z,20.23
2019-04-07T14:55:14.939Z,21.03
2019-04-07T14:58:18.660Z,20.62
2019-04-07T15:01:10.716Z,20.22
2019-04-07T15:03:42.709Z,20.86
2019-04-07T15:06:14.030Z,20.15
2019-04-07T15:08:56.344Z,21.16
2019-04-07T15:11:44.449Z,20.93
2019-04-07T15:14:15.359Z,22.03
2019-04-07T15:16:45.835Z,20.41
2019-04-07T15:19:18.117Z,19.88
2019-04-07T15:21:53.032Z,19.98
2019-04-07T15:24:24.384Z,19.48
2019-04-07T15:26:57.732Z,18.21
2019-04-07T15:29:28.905Z,18.86
2019-04-07T15:32:01.800Z,19.66
2019-04-07T15:34:34.320Z,19.21
2019-04-07T15:37:06.686Z,19.49
2019-04-07T15:39:38.368Z,19.82
2019-04-07T15:42:11.553Z,19.84
2019-04-07T15:44:45.026Z,19.85
2019-04-07T15:47:15.564Z,20.18
2019-04-07T15:49:48.464Z,21.31
2019-04-07T15:52:19.605Z,21.82
2019-04-07T15:54:53.256Z,21.81
2019-04-07T15:57:24.114Z,22.13
2019-04-07T15:59:54.362Z,21.52
2019-04-07T16:02:25.762Z,21.31
2019-04-07T16:05:02.351Z,21.25
2019-04-07T16:07:32.804Z,21.68
2019-04-07T16:10:06.689Z,22.56
2019-04-07T16:12:50.023Z,22.66
2019-04-07T16:15:18.224Z,22.55
2019-04-07T16:17:52.723Z,23.07
2019-04-07T16:20:31.333Z,23.20
2019-04-07T16:22:59.697Z,22.87
2019-04-07T16:25:32.757Z,22.82
2019-04-07T16:28:04.034Z,23.95
2019-04-07T16:30:35.390Z,23.80
2019-04-07T16:33:10.496Z,22.91
2019-04-07T16:35:49.056Z,22.74
2019-04-07T16:38:22.603Z,23.63
2019-04-07T16:40:58.702Z,24.12
2019-04-07T16:43:32.162Z,24.48
2019-04-07T16:46:03.244Z,23.71
2019-04-07T16:48:39.241Z,23.86
2019-04-07T16:51:07.889Z,24.09
2019-04-07T16:53:42.801Z,25.21
2019-04-07T16:56:13.456Z,24.60
2019-04-07T16:58:45.819Z,25.45
2019-04-07T17:01:17.420Z,25.23
2019-04-07T17:03:49.962Z,24.95
2019-04-07T17:06:21.921Z,25.87
2019-04-07T17:08:54.097Z,25.40
2019-04-07T17:11:30.080Z,26.17
2019-04-07T17:14:02.937Z,26.04
2019-04-07T17:16:34.505Z,25.31
2019-04-07T17:19:05.623Z,25.11
2019-04-07T17:21:40.698Z,25.03
2019-04-07T17:24:11.853Z,25.44
2019-04-07T17:26:44.400Z,25.87
2019-04-07T17:29:19.037Z,25.66
2019-04-07T17:31:52.208Z,25.27
2019-04-07T17:34:26.166Z,25.41
2019-04-07T17:36:58.804Z,25.51
2019-04-07T17:39:56.962Z,25.43
2019-04-07T17:42:35.490Z,25.64
2019-04-07T17:45:24.734Z,26.05
2019-04-07T17:48:07.389Z,25.65
2019-04-07T17:51:06.355Z,26.02
2019-04-07T17:53:47.320Z,26.42
2019-04-07T17:56:38.165Z,26.54
2019-04-07T17:59:32.395Z,26.00
2019-04-07T18:02:30.390Z,26.30
2019-04-07T18:05:26.137Z,27.07
2019-04-07T18:08:17.962Z,26.79
2019-04-07T18:11:02.312Z,26.75
2019-04-07T18:13:51.536Z,26.88
2019-04-07T18:16:41.819Z,27.08
2019-04-07T18:19:31.875Z,27.39
2019-04-07T18:22:10.236Z,27.51
2019-04-07T18:25:02.747Z,27.07
2019-04-07T18:27:53.299Z,27.64
2019-04-07T18:30:36.032Z,28.09
2019-04-07T18:33:31.367Z,29.58
2019-04-07T18:36:23.687Z,29.70
2019-04-07T18:39:17.349Z,30.07
2019-04-07T18:42:02.055Z,29.64
2019-04-07T18:44:52.095Z,29.60
2019-04-07T18:47:33.791Z,30.04
2019-04-07T18:50:28.718Z,31.06
2019-04-07T18:53:16.712Z,30.57
2019-04-07T18:56:09.311Z,30.54
2019-04-07T18:59:12.988Z,30.88
2019-04-07T19:02:12.288Z,31.28
2019-04-07T19:05:01.317Z,31.60
2019-04-07T19:07:50.406Z,31.31
2019-04-07T19:10:35.561Z,31.37
2019-04-07T19:13:17.582Z,32.08
2019-04-07T19:16:20.630Z,32.05
2019-04-07T19:19:16.095Z,32.12
2019-04-07T19:22:18.876Z,32.17
2019-04-07T19:25:27.145Z,32.45
2019-04-07T19:28:06.007Z,32.26
2019-04-07T19:31:17.477Z,32.65
2019-04-07T19:34:13.423Z,32.59
2019-04-07T19:36:55.071Z,32.93
2019-04-07T19:39:35.564Z,33.44
2019-04-07T19:42:41.598Z,33.03
2019-04-07T19:45:35.064Z,33.03
2019-04-07T19:48:23.117Z,33.63
2019-04-07T19:51:15.491Z,33.13
2019-04-07T19:54:04.843Z,34.11
2019-04-07T19:57:04.688Z,33.86
2019-04-07T20:00:00.565Z,34.18
2019-04-07T20:03:09.653Z,34.10
2019-04-07T20:05:56.206Z,34.25
2019-04-07T20:08:39.856Z,33.75
2019-04-07T20:11:30.754Z,33.88
2019-04-07T20:14:16.884Z,34.34
2019-04-07T20:17:09.666Z,34.07
2019-04-07T20:19:58.556Z,34.07
2019-04-07T20:23:00.156Z,34.56
2019-04-07T20:25:47.889Z,34.43
2019-04-07T20:28:37.876Z,34.65
2019-04-07T20:31:20.390Z,34.45
2019-04-07T20:34:09.723Z,34.62
2019-04-07T20:37:09.366Z,34.67
2019-04-07T20:39:58.840Z,34.82
2019-04-07T20:42:58.280Z,34.50
2019-04-07T20:45:49.124Z,34.37
2019-04-07T20:48:37.069Z,34.27
2019-04-07T20:51:28.421Z,34.25
2019-04-07T20:54:23.751Z,34.41
2019-04-07T20:57:23.763Z,34.20
2019-04-07T21:00:18.663Z,34.24
2019-04-07T21:03:11.224Z,34.79
2019-04-07T21:05:58.224Z,35.09
2019-04-07T21:08:50.037Z,35.53
2019-04-07T21:11:47.511Z,35.55
2019-04-07T21:14:26.027Z,34.68
2019-04-07T21:17:18.716Z,34.90
2019-04-07T21:20:12.882Z,35.47
2019-04-07T21:22:54.013Z,35.46
2019-04-07T21:25:35.767Z,35.00
2019-04-07T21:28:26.809Z,35.01
2019-04-07T21:31:17.464Z,35.29
2019-04-07T21:33:59.303Z,35.29
2019-04-07T21:36:52.556Z,35.59
2019-04-07T21:39:41.753Z,35.41
2019-04-07T21:42:31.867Z,35.54
2019-04-07T21:45:29.139Z,35.57
2019-04-07T21:48:09.586Z,35.88
2019-04-07T21:50:51.661Z,35.51
2019-04-07T21:53:34.617Z,35.94
2019-04-07T21:56:43.132Z,36.22
2019-04-07T21:59:29.285Z,36.35
2019-04-07T22:02:19.580Z,36.65
2019-04-07T22:05:24.021Z,36.06
2019-04-07T22:08:03.680Z,36.20
2019-04-07T22:10:34.015Z,36.01
2019-04-07T22:13:10.087Z,36.28
2019-04-07T22:15:47.923Z,36.78
2019-04-07T22:18:13.574Z,36.40
2019-04-07T22:20:43.795Z,36.51
2019-04-07T22:23:14.666Z,36.31
2019-04-07T22:25:51.279Z,36.62
2019-04-07T22:28:27.732Z,37.16
2019-04-07T22:30:57.414Z,36.77
2019-04-07T22:33:31.062Z,36.81
2019-04-07T22:36:02.104Z,37.47
2019-04-07T22:38:39.326Z,37.32
2019-04-07T22:41:19.714Z,37.74
2019-04-07T22:43:52.024Z,37.56
2019-04-07T22:46:27.227Z,37.69
2019-04-07T22:48:58.741Z,38.01
2019-04-07T22:51:30.689Z,37.42
2019-04-07T22:54:01.537Z,37.73
2019-04-07T22:56:37.881Z,37.95
2019-04-07T22:59:09.859Z,38.09
2019-04-07T23:01:41.699Z,38.47
2019-04-07T23:04:12.584Z,38.38
2019-04-07T23:06:46.205Z,38.31
2019-04-07T23:09:21.853Z,38.60
2019-04-07T23:11:54.954Z,38.37
2019-04-07T23:14:27.562Z,38.29
2019-04-07T23:17:01.651Z,38.18
2019-04-07T23:19:34.345Z,38.77
2019-04-07T23:22:09.860Z,38.65
2019-04-07T23:24:43.270Z,38.96
2019-04-07T23:27:14.825Z,38.64
2019-04-07T23:29:47.373Z,38.79
2019-04-07T23:32:19.927Z,38.92
2019-04-07T23:34:52.151Z,39.04
2019-04-07T23:37:26.458Z,38.95
2019-04-07T23:39:58.809Z,38.60
2019-04-07T23:42:32.672Z,38.72
2019-04-07T23:45:03.171Z,39.28
2019-04-07T23:47:36.683Z,39.27
2019-04-07T23:50:09.567Z,39.28
2019-04-07T23:52:41.376Z,39.83
2019-04-07T23:55:12.904Z,39.96
2019-04-07T23:57:43.261Z,39.61
